Time;durP1;ratioP1;P1;durP2;ratioP2;P2;SDS_P1;SDS_P2;PMS_P1;PMS_P2;Temp;Humidity;BMP_temperature;BMP_pressure;BME280_temperature;BME280_humidity;BME280_pressure;Samples;Min_cycle;Max_cycle;Signal;HPM_P1;HPM_P2
2022/05/10 00:00:28;;;;;;;;;;;;;;;21.29;46.93;101911.09;5049102;28;19935;-79
2022/05/10 00:02:55;;;;;;;;;;;;;;;21.29;46.61;101916.59;5051249;28;19959;-79
2022/05/10 00:05:25;;;;;;;;;;;;;;;21.28;46.71;101910.28;5050309;28;19933;-78
2022/05/10 00:07:51;;;;;;;;;;;;;;;21.27;46.64;101907.81;5066385;28;19916;-80
2022/05/10 00:10:17;;;;;;;;;;;;;;;21.27;46.60;101905.06;5059714;28;19947;-79
2022/05/10 00:12:42;;;;;;;;;;;;;;;21.27;46.93;101903.16;5075390;28;19924;-79
2022/05/10 00:15:08;;;;;;;;;;;;;;;21.26;47.01;101898.75;5039931;28;19976;-79
2022/05/10 00:17:37;;;;;;;;;;;;;;;21.27;46.96;101894.06;5058856;28;20004;-79
2022/05/10 00:20:05;;;;;;;;;;;;;;;21.26;46.66;101881.44;5053953;28;20379;-79
2022/05/10 00:22:30;;;;;;;;;;;;;;;21.26;47.01;101893.25;5067431;28;19920;-79
2022/05/10 00:24:56;;;;;;;;;;;;;;;21.25;46.67;101882.56;5058363;28;20299;-79
2022/05/10 00:27:22;;;;;;;;;;;;;;;21.25;46.63;101877.09;5056334;28;19969;-80
2022/05/10 00:29:47;;;;;;;;;;;;;;;21.25;46.84;101874.34;5074131;28;19953;-79
2022/05/10 00:32:12;;;;;;;;;;;;;;;21.24;46.72;101872.69;5061048;28;20777;-79
2022/05/10 00:34:37;;;;;;;;;;;;;;;21.23;46.86;101879.28;5074026;28;19920;-79
2022/05/10 00:37:03;;;;;;;;;;;;;;;21.23;46.66;101874.59;5056423;28;20329;-79
2022/05/10 00:39:28;;;;;;;;;;;;;;;21.24;46.89;101867.19;5056425;28;19956;-84
2022/05/10 00:42:00;;;;;;;;;;;;;;;21.23;46.97;101862.81;5068710;28;20310;-79
2022/05/10 00:44:31;;;;;;;;;;;;;;;21.22;46.90;101867.47;5072232;28;20047;-79
2022/05/10 00:47:02;;;;;;;;;;;;;;;21.24;46.63;101867.19;5050427;28;20382;-79
2022/05/10 00:49:45;;;;;;;;;;;;;;;21.22;46.73;101852.91;5073063;28;19917;-79
2022/05/10 00:52:21;;;;;;;;;;;;;;;21.22;46.58;101861.16;5071866;28;19931;-79
2022/05/10 00:54:57;;;;;;;;;;;;;;;21.21;46.77;101863.06;5050333;28;19917;-78
2022/05/10 00:57:30;;;;;;;;;;;;;;;21.21;46.87;101859.50;5060863;28;19940;-78
2022/05/10 01:00:05;;;;;;;;;;;;;;;21.21;46.90;101854.03;5054200;28;19924;-81
2022/05/10 01:02:38;;;;;;;;;;;;;;;21.22;46.77;101859.25;5071636;28;19942;-84
2022/05/10 01:05:23;;;;;;;;;;;;;;;21.22;46.84;101852.91;5055747;28;19951;-78
2022/05/10 01:07:55;;;;;;;;;;;;;;;21.23;46.64;101849.06;5044068;28;20303;-79
2022/05/10 01:10:30;;;;;;;;;;;;;;;21.24;46.89;101862.50;5072730;28;19920;-78
2022/05/10 01:13:16;;;;;;;;;;;;;;;21.25;46.89;101849.59;5056067;28;20017;-79
2022/05/10 01:15:44;;;;;;;;;;;;;;;21.25;46.64;101846.84;5066570;28;19988;-78
2022/05/10 01:18:09;;;;;;;;;;;;;;;21.26;46.96;101848.47;5070604;28;19938;-80
2022/05/10 01:20:37;;;;;;;;;;;;;;;21.28;46.91;101840.78;5058874;28;19950;-80
2022/05/10 01:23:15;;;;;;;;;;;;;;;21.28;46.74;101838.03;5066242;28;19943;-79
2022/05/10 01:25:40;;;;;;;;;;;;;;;21.28;46.86;101832.53;5054586;28;20326;-79
2022/05/10 01:28:18;;;;;;;;;;;;;;;21.28;46.79;101822.34;5073260;28;19945;-78
2022/05/10 01:30:43;;;;;;;;;;;;;;;21.29;46.62;101821.25;5065895;28;19931;-81
2022/05/10 01:33:30;;;;;;;;;;;;;;;21.30;46.94;101813.84;5053989;28;19953;-79
2022/05/10 01:35:55;;;;;;;;;;;;;;;21.30;46.79;101817.38;5066344;28;19942;-79
2022/05/10 01:38:21;;;;;;;;;;;;;;;21.30;46.88;101817.38;5048791;28;19932;-78
2022/05/10 01:40:49;;;;;;;;;;;;;;;21.30;46.66;101811.09;5070831;28;19981;-78
2022/05/10 01:43:18;;;;;;;;;;;;;;;21.29;46.76;101806.69;5062476;28;19947;-78
2022/05/10 01:45:47;;;;;;;;;;;;;;;21.30;46.83;101805.59;5053794;28;19920;-79
2022/05/10 01:48:15;;;;;;;;;;;;;;;21.29;47.00;101806.69;5066286;28;20033;-78
2022/05/10 01:50:43;;;;;;;;;;;;;;;21.28;46.80;101799.56;5060603;28;19925;-79
2022/05/10 01:53:08;;;;;;;;;;;;;;;21.28;46.87;101796.81;5053416;28;20021;-78
2022/05/10 01:55:35;;;;;;;;;;;;;;;21.27;46.62;101798.75;5047581;28;20016;-79
2022/05/10 01:58:03;;;;;;;;;;;;;;;21.27;46.63;101793.25;5051195;28;20284;-78
2022/05/10 02:00:29;;;;;;;;;;;;;;;21.26;47.07;101786.09;5071774;28;19941;-79
2022/05/10 02:03:00;;;;;;;;;;;;;;;21.27;46.77;101789.66;5050735;28;19992;-79
2022/05/10 02:05:42;;;;;;;;;;;;;;;21.25;47.00;101787.22;5064012;28;19933;-79
2022/05/10 02:08:15;;;;;;;;;;;;;;;21.25;46.76;101784.47;5051535;28;19921;-78
2022/05/10 02:10:44;;;;;;;;;;;;;;;21.24;46.85;101771.81;5039746;28;19939;-81
2022/05/10 02:13:13;;;;;;;;;;;;;;;21.24;46.72;101779.25;5056377;28;19927;-79
2022/05/10 02:15:46;;;;;;;;;;;;;;;21.24;46.88;101779.25;5053253;28;20042;-83
2022/05/10 02:18:14;;;;;;;;;;;;;;;21.24;47.03;101784.75;5071502;28;20423;-79
2022/05/10 02:20:46;;;;;;;;;;;;;;;21.23;46.66;101774.88;5053929;28;19938;-83
2022/05/10 02:23:15;;;;;;;;;;;;;;;21.22;46.76;101767.72;5062024;28;20463;-78
2022/05/10 02:25:42;;;;;;;;;;;;;;;21.21;47.00;101763.34;5071805;28;19939;-83
2022/05/10 02:28:16;;;;;;;;;;;;;;;21.22;46.93;101762.22;5070316;28;19937;-78
2022/05/10 02:30:44;;;;;;;;;;;;;;;21.20;46.97;101759.78;5071211;28;19937;-79
2022/05/10 02:33:10;;;;;;;;;;;;;;;21.21;46.61;101760.59;5054882;28;19944;-79
2022/05/10 02:35:42;;;;;;;;;;;;;;;21.20;46.98;101758.97;5070639;28;20376;-79
2022/05/10 02:38:09;;;;;;;;;;;;;;;21.20;46.85;101761.72;5070087;28;20358;-79
2022/05/10 02:40:35;;;;;;;;;;;;;;;21.18;46.78;101749.06;5059268;28;20045;-79
2022/05/10 02:43:01;;;;;;;;;;;;;;;21.18;46.93;101753.75;5055569;28;20104;-79
2022/05/10 02:45:27;;;;;;;;;;;;;;;21.18;46.65;101753.75;5058097;28;19921;-79
2022/05/10 02:47:52;;;;;;;;;;;;;;;21.17;46.94;101752.13;5068287;28;19935;-78
2022/05/10 02:50:28;;;;;;;;;;;;;;;21.16;46.64;101747.72;5057282;28;19935;-79
2022/05/10 02:52:54;;;;;;;;;;;;;;;21.16;46.93;101745.78;5051114;28;19976;-79
2022/05/10 02:55:24;;;;;;;;;;;;;;;21.15;46.95;101737.84;5051049;28;19963;-78
2022/05/10 02:57:51;;;;;;;;;;;;;;;21.15;46.85;101738.66;5051442;28;20427;-79
2022/05/10 03:00:17;;;;;;;;;;;;;;;21.14;46.95;101731.53;5052783;28;19927;-79
2022/05/10 03:02:45;;;;;;;;;;;;;;;21.14;46.75;101725.22;5071808;28;20708;-83
2022/05/10 03:05:12;;;;;;;;;;;;;;;21.14;46.80;101733.44;5071091;28;19920;-79
2022/05/10 03:07:38;;;;;;;;;;;;;;;21.14;46.62;101727.97;5053796;28;19916;-78
2022/05/10 03:10:04;;;;;;;;;;;;;;;21.12;46.71;101722.78;5060628;28;19917;-79
2022/05/10 03:12:30;;;;;;;;;;;;;;;21.13;46.96;101724.41;5052158;28;19921;-78
2022/05/10 03:14:55;;;;;;;;;;;;;;;21.12;46.71;101727.44;5061104;28;22506;-79
2022/05/10 03:17:20;;;;;;;;;;;;;;;21.12;46.85;101717.28;5052103;28;19939;-79
2022/05/10 03:19:46;;;;;;;;;;;;;;;21.12;47.00;101722.78;5073504;28;19950;-84
2022/05/10 03:22:11;;;;;;;;;;;;;;;21.11;46.58;101720.31;5054535;28;19938;-79
2022/05/10 03:24:37;;;;;;;;;;;;;;;21.11;46.83;101712.88;5060415;28;20385;-79
2022/05/10 03:27:03;;;;;;;;;;;;;;;21.10;46.59;101714.00;5059337;28;19951;-79
2022/05/10 03:29:29;;;;;;;;;;;;;;;21.10;46.51;101703.00;5062936;28;20306;-78
2022/05/10 03:31:55;;;;;;;;;;;;;;;21.10;46.84;101707.69;5051554;28;19955;-79
2022/05/10 03:37:04;;;;;;;;;;;;;;;21.10;46.53;101710.44;5056116;28;19928;-79
2022/05/10 03:39:30;;;;;;;;;;;;;;;21.10;46.60;101699.44;5067456;28;20343;-79
2022/05/10 03:41:55;;;;;;;;;;;;;;;21.08;46.85;101699.72;5051512;28;19954;-79
2022/05/10 03:44:20;;;;;;;;;;;;;;;21.08;46.59;101699.72;5043521;28;19938;-78
2022/05/10 03:46:45;;;;;;;;;;;;;;;21.08;46.81;101696.16;5065795;28;19920;-78
2022/05/10 03:49:11;;;;;;;;;;;;;;;21.08;46.81;101698.91;5069257;28;19959;-79
2022/05/10 03:51:36;;;;;;;;;;;;;;;21.09;46.91;101692.28;5070689;28;19997;-79
2022/05/10 03:54:02;;;;;;;;;;;;;;;21.07;46.90;101692.59;5056478;28;19963;-79
2022/05/10 03:56:27;;;;;;;;;;;;;;;21.08;46.59;101685.19;5038928;28;19939;-78
2022/05/10 03:58:52;;;;;;;;;;;;;;;21.07;46.86;101692.59;5049238;28;19925;-79
2022/05/10 04:01:19;;;;;;;;;;;;;;;21.06;46.80;101681.91;5085368;28;19978;-78
2022/05/10 04:03:44;;;;;;;;;;;;;;;21.06;46.75;101685.47;5074968;28;19958;-78
2022/05/10 04:06:10;;;;;;;;;;;;;;;21.07;46.74;101683.56;5072696;28;20684;-80
2022/05/10 04:08:35;;;;;;;;;;;;;;;21.06;46.92;101684.63;5057783;28;20387;-78
2022/05/10 04:11:02;;;;;;;;;;;;;;;21.06;46.59;101681.91;5051076;28;19940;-79
2022/05/10 04:13:27;;;;;;;;;;;;;;;21.06;46.60;101681.91;5050938;28;19928;-78
2022/05/10 04:15:52;;;;;;;;;;;;;;;21.06;46.60;101679.16;5065113;28;20000;-83
2022/05/10 04:18:17;;;;;;;;;;;;;;;21.05;46.62;101681.09;5061710;28;20041;-79
2022/05/10 04:20:43;;;;;;;;;;;;;;;21.05;46.81;101674.78;5057002;28;20265;-78
2022/05/10 04:23:08;;;;;;;;;;;;;;;21.05;46.65;101674.78;5057317;28;20003;-79
2022/05/10 04:25:34;;;;;;;;;;;;;;;21.05;46.65;101670.09;5055460;28;19999;-79
2022/05/10 04:27:59;;;;;;;;;;;;;;;21.04;46.86;101673.97;5058776;28;19942;-79
2022/05/10 04:30:24;;;;;;;;;;;;;;;21.04;46.67;101667.63;5056556;28;19935;-80
2022/05/10 04:32:50;;;;;;;;;;;;;;;21.04;46.85;101673.97;5057140;28;20037;-79
2022/05/10 04:35:15;;;;;;;;;;;;;;;21.04;46.66;101662.13;5056298;28;20352;-79
2022/05/10 04:37:40;;;;;;;;;;;;;;;21.03;46.69;101672.31;5045710;28;20422;-79
2022/05/10 04:42:52;;;;;;;;;;;;;;;21.03;46.73;101666.81;5052212;28;19950;-78
2022/05/10 04:45:17;;;;;;;;;;;;;;;21.03;46.62;101664.06;5059428;28;19954;-78
2022/05/10 04:47:43;;;;;;;;;;;;;;;21.03;46.87;101668.75;5070637;28;20470;-79
2022/05/10 04:50:09;;;;;;;;;;;;;;;21.02;46.83;101662.44;5071139;28;19933;-80
2022/05/10 04:52:34;;;;;;;;;;;;;;;21.02;46.88;101665.19;5054381;28;19942;-79
2022/05/10 04:54:59;;;;;;;;;;;;;;;21.03;46.91;101666.00;5069516;28;20034;-79
2022/05/10 04:57:25;;;;;;;;;;;;;;;21.02;46.58;101661.63;5057812;28;19937;-78
2022/05/10 04:59:50;;;;;;;;;;;;;;;21.02;46.70;101667.13;5040889;28;19943;-79
2022/05/10 05:02:15;;;;;;;;;;;;;;;21.02;46.60;101665.19;5077411;28;19977;-78
2022/05/10 05:04:40;;;;;;;;;;;;;;;21.02;46.89;101653.38;5061771;28;19954;-79
2022/05/10 05:07:06;;;;;;;;;;;;;;;21.02;46.93;101667.94;5052604;28;19997;-79
2022/05/10 05:09:31;;;;;;;;;;;;;;;21.02;46.83;101665.19;5036505;28;20437;-78
2022/05/10 05:11:57;;;;;;;;;;;;;;;21.02;46.54;101665.19;5069974;28;19920;-82
2022/05/10 05:14:22;;;;;;;;;;;;;;;21.02;46.58;101667.94;5076717;28;19924;-78
2022/05/10 05:16:48;;;;;;;;;;;;;;;21.01;46.69;101658.03;5061511;28;19959;-79
2022/05/10 05:19:13;;;;;;;;;;;;;;;21.01;46.63;101663.53;5072149;28;19946;-79
2022/05/10 05:21:38;;;;;;;;;;;;;;;21.02;46.67;101667.94;5056014;28;20265;-79
2022/05/10 05:24:05;;;;;;;;;;;;;;;21.01;46.95;101666.28;5073235;28;19954;-78
2022/05/10 05:26:30;;;;;;;;;;;;;;;21.03;46.86;101660.50;5039882;28;19932;-79
2022/05/10 05:28:55;;;;;;;;;;;;;;;21.03;46.90;101661.31;5052370;28;19935;-81
2022/05/10 05:31:21;;;;;;;;;;;;;;;21.02;46.70;101659.69;5053334;28;19932;-81
2022/05/10 05:33:46;;;;;;;;;;;;;;;21.04;47.01;101662.13;5080831;28;19942;-79
2022/05/10 05:36:11;;;;;;;;;;;;;;;21.05;47.13;101653.63;5058291;28;19929;-83
2022/05/10 05:38:36;;;;;;;;;;;;;;;21.06;46.95;101651.69;5074387;28;19959;-79
2022/05/10 05:41:02;;;;;;;;;;;;;;;21.07;46.99;101642.34;5062124;28;20448;-83
2022/05/10 05:43:27;;;;;;;;;;;;;;;21.08;46.98;101647.53;5057442;28;19957;-82
2022/05/10 05:45:52;;;;;;;;;;;;;;;21.09;47.10;101651.09;5052893;28;20444;-82
2022/05/10 05:48:18;;;;;;;;;;;;;;;21.09;47.20;101649.19;5086280;28;20380;-83
2022/05/10 05:50:43;;;;;;;;;;;;;;;21.10;47.23;101644.50;5042669;28;19933;-83
2022/05/10 05:53:09;;;;;;;;;;;;;;;21.10;47.24;101648.06;5052771;28;19938;-82
2022/05/10 05:55:34;;;;;;;;;;;;;;;21.11;47.29;101648.88;5019448;28;19986;-82
2022/05/10 05:57:59;;;;;;;;;;;;;;;21.11;47.27;101652.44;5069397;28;19947;-81
2022/05/10 06:00:25;;;;;;;;;;;;;;;21.11;47.28;101649.69;5038416;28;20455;-82
2022/05/10 06:02:51;;;;;;;;;;;;;;;21.11;47.42;101644.19;5058055;28;19920;-84
2022/05/10 06:05:17;;;;;;;;;;;;;;;21.12;47.70;101648.59;5072451;28;19931;-81
2022/05/10 06:07:42;;;;;;;;;;;;;;;21.12;47.47;101653.28;5054735;28;19935;-81
2022/05/10 06:10:09;;;;;;;;;;;;;;;21.12;47.73;101647.78;5042847;28;19925;-82
2022/05/10 06:12:34;;;;;;;;;;;;;;;21.12;47.37;101651.34;5053711;28;19917;-80
2022/05/10 06:15:00;;;;;;;;;;;;;;;21.13;47.36;101646.66;5059373;28;19928;-84
2022/05/10 06:17:25;;;;;;;;;;;;;;;21.12;47.59;101654.09;5071826;28;20317;-82
2022/05/10 06:19:51;;;;;;;;;;;;;;;21.13;47.45;101652.16;5072349;28;19942;-81
2022/05/10 06:22:16;;;;;;;;;;;;;;;21.13;47.73;101652.16;5070599;28;20435;-81
2022/05/10 06:24:41;;;;;;;;;;;;;;;21.14;47.55;101653.78;5071198;28;20371;-81
2022/05/10 06:27:10;;;;;;;;;;;;;;;21.14;47.66;101653.78;5059126;28;19931;-82
2022/05/10 06:29:35;;;;;;;;;;;;;;;21.14;47.77;101651.88;5069408;28;19943;-81
2022/05/10 06:32:00;;;;;;;;;;;;;;;21.14;47.92;101646.38;5051653;28;19971;-82
2022/05/10 06:34:25;;;;;;;;;;;;;;;21.15;47.52;101648.00;5071094;28;20053;-81
2022/05/10 06:36:51;;;;;;;;;;;;;;;21.15;47.60;101647.19;5062597;28;20286;-82
2022/05/10 06:39:16;;;;;;;;;;;;;;;21.16;47.75;101643.31;5034309;28;19986;-82
2022/05/10 06:41:41;;;;;;;;;;;;;;;21.16;47.86;101640.56;5080333;28;19962;-83
2022/05/10 06:44:07;;;;;;;;;;;;;;;21.16;48.13;101637.81;5054944;28;20372;-87
2022/05/10 06:46:34;;;;;;;;;;;;;;;21.17;48.31;101647.72;5071535;28;20275;-83
2022/05/10 06:49:01;;;;;;;;;;;;;;;21.18;48.08;101641.91;5063461;28;20298;-82
2022/05/10 06:51:26;;;;;;;;;;;;;;;21.18;48.47;101630.13;5059897;28;20513;-83
2022/05/10 06:53:53;;;;;;;;;;;;;;;21.18;48.34;101624.63;5053167;28;19980;-82
2022/05/10 06:56:19;;;;;;;;;;;;;;;21.18;48.16;101625.44;5062493;28;19943;-81
2022/05/10 06:58:44;;;;;;;;;;;;;;;21.19;48.37;101626.25;5068110;28;19928;-84
2022/05/10 07:01:12;;;;;;;;;;;;;;;21.19;48.62;101615.25;5044560;28;19959;-89
2022/05/10 07:03:42;;;;;;;;;;;;;;;21.20;48.48;101621.59;5036869;28;20309;-88
2022/05/10 07:06:09;;;;;;;;;;;;;;;21.20;48.35;101618.84;5051660;28;19943;-87
2022/05/10 07:08:34;;;;;;;;;;;;;;;21.21;48.71;101624.03;5063109;28;19960;-83
2022/05/10 07:11:00;;;;;;;;;;;;;;;21.21;48.28;101620.47;5067191;28;19981;-83
2022/05/10 07:13:26;;;;;;;;;;;;;;;21.21;48.53;101610.28;5073277;28;19945;-87
2022/05/10 07:15:52;;;;;;;;;;;;;;;21.22;48.33;101613.84;5061595;28;19955;-82
2022/05/10 07:18:18;;;;;;;;;;;;;;;21.21;48.55;101613.03;5050423;28;19939;-83
2022/05/10 07:20:44;;;;;;;;;;;;;;;21.22;48.55;101608.34;5058322;28;19974;-83
2022/05/10 07:23:10;;;;;;;;;;;;;;;21.22;48.38;101611.09;5038006;28;19950;-86
2022/05/10 07:25:36;;;;;;;;;;;;;;;21.21;48.23;101604.78;5070816;28;19953;-84
2022/05/10 07:28:02;;;;;;;;;;;;;;;21.22;48.15;101602.88;5071676;28;19934;-83
2022/05/10 07:30:28;;;;;;;;;;;;;;;21.22;48.58;101591.88;5071454;28;20303;-83
2022/05/10 07:32:53;;;;;;;;;;;;;;;21.22;48.47;101595.47;5068447;28;19917;-84
2022/05/10 07:36:23;;;;;;;;;;;;;;;21.22;48.35;101598.22;5051684;28;19927;-85
2022/05/10 07:38:09;;;;;;;;;;;;;;;21.23;48.40;101596.28;5051657;28;19942;-84
2022/05/10 07:40:35;;;;;;;;;;;;;;;21.22;48.18;101595.47;5050575;28;19931;-84
2022/05/10 07:43:00;;;;;;;;;;;;;;;21.24;48.33;101600.66;5046533;28;20340;-84
2022/05/10 07:45:25;;;;;;;;;;;;;;;21.23;48.12;101594.34;5050637;28;19969;-84
2022/05/10 07:47:51;;;;;;;;;;;;;;;21.23;48.42;101596.28;5057203;28;20383;-84
2022/05/10 07:50:16;;;;;;;;;;;;;;;21.23;48.18;101596.28;5045703;28;20011;-85
2022/05/10 07:52:42;;;;;;;;;;;;;;;21.23;48.51;101602.56;5063473;28;20382;-85
2022/05/10 07:55:08;;;;;;;;;;;;;;;21.24;48.17;101600.66;5053578;28;19946;-85
2022/05/10 07:57:33;;;;;;;;;;;;;;;21.24;48.35;101598.72;5046562;28;19991;-84
2022/05/10 07:59:59;;;;;;;;;;;;;;;21.24;48.27;101595.16;5038061;28;19980;-84
2022/05/10 08:02:24;;;;;;;;;;;;;;;21.24;48.26;101597.91;5052750;28;19921;-87
2022/05/10 08:04:50;;;;;;;;;;;;;;;21.24;48.20;101601.47;5061034;28;19956;-84
2022/05/10 08:07:15;;;;;;;;;;;;;;;21.25;48.45;101596.81;5067261;28;20376;-90
2022/05/10 08:09:40;;;;;;;;;;;;;;;21.25;48.18;101596.81;5063929;28;19924;-85
2022/05/10 08:12:06;;;;;;;;;;;;;;;21.25;48.29;101591.31;5053435;28;20044;-88
2022/05/10 08:14:31;;;;;;;;;;;;;;;21.24;48.39;101589.66;5071005;28;19965;-83
2022/05/10 08:16:56;;;;;;;;;;;;;;;21.26;48.14;101592.94;5037069;28;20049;-83
2022/05/10 08:19:22;;;;;;;;;;;;;;;21.25;48.15;101585.81;5069610;28;19916;-82
2022/05/10 08:21:47;;;;;;;;;;;;;;;21.26;48.07;101582.75;5041256;28;19967;-83
2022/05/10 08:24:12;;;;;;;;;;;;;;;21.26;48.33;101582.75;5066258;28;19949;-82
2022/05/10 08:26:37;;;;;;;;;;;;;;;21.26;48.36;101577.25;5058474;28;19932;-85
2022/05/10 08:29:03;;;;;;;;;;;;;;;21.26;48.29;101577.25;5049292;28;19921;-82
2022/05/10 08:31:28;;;;;;;;;;;;;;;21.26;48.38;101571.75;5054165;28;19924;-82
2022/05/10 08:33:53;;;;;;;;;;;;;;;21.27;47.93;101576.16;5055252;28;20488;-85
2022/05/10 08:36:18;;;;;;;;;;;;;;;21.28;48.03;101577.78;5033262;28;19929;-86
2022/05/10 08:38:44;;;;;;;;;;;;;;;21.28;48.05;101575.03;5051845;28;19939;-83
2022/05/10 08:41:27;;;;;;;;;;;;;;;21.28;48.11;101574.22;5069272;28;20038;-84
2022/05/10 08:43:58;;;;;;;;;;;;;;;21.29;48.09;101567.59;5072761;28;19946;-83
2022/05/10 08:46:32;;;;;;;;;;;;;;;21.29;48.24;101567.59;5053300;28;20283;-83
2022/05/10 08:49:01;;;;;;;;;;;;;;;21.29;48.43;101565.69;5054413;28;19946;-84
2022/05/10 08:51:26;;;;;;;;;;;;;;;21.30;48.07;101570.06;5070219;28;20369;-83
2022/05/10 08:53:52;;;;;;;;;;;;;;;21.31;48.08;101573.63;5064930;28;19950;-84
2022/05/10 08:56:31;;;;;;;;;;;;;;;21.30;48.23;101570.06;5058672;28;20077;-85
2022/05/10 08:59:02;;;;;;;;;;;;;;;21.31;48.05;101560.69;5067153;28;20418;-83
2022/05/10 09:01:31;;;;;;;;;;;;;;;21.31;48.17;101565.38;5066581;28;19942;-84
2022/05/10 09:04:19;;;;;;;;;;;;;;;21.32;48.33;101565.09;5064032;28;19916;-84
2022/05/10 09:06:44;;;;;;;;;;;;;;;21.33;48.17;101554.91;5073679;28;20300;-83
2022/05/10 09:09:21;;;;;;;;;;;;;;;21.34;48.41;101553.78;5063492;28;19935;-83
2022/05/10 09:11:59;;;;;;;;;;;;;;;21.34;48.13;101551.03;5060522;28;19944;-83
2022/05/10 09:14:29;;;;;;;;;;;;;;;21.34;48.51;101553.78;5069791;28;19962;-83
2022/05/10 09:16:55;;;;;;;;;;;;;;;21.34;48.33;101548.31;5075233;28;19924;-84
2022/05/10 09:19:24;;;;;;;;;;;;;;;21.35;48.51;101559.00;5045202;28;19946;-83
2022/05/10 09:21:52;;;;;;;;;;;;;;;21.36;48.46;101557.06;5059175;28;19940;-83
2022/05/10 09:24:26;;;;;;;;;;;;;;;21.36;48.57;101543.31;5037162;28;19917;-83
2022/05/10 09:26:55;;;;;;;;;;;;;;;21.37;48.17;101544.97;5054229;28;19939;-84
2022/05/10 09:29:24;;;;;;;;;;;;;;;21.37;48.49;101543.03;5047786;28;19916;-83
2022/05/10 09:34:45;;;;;;;;;;;;;;;21.38;48.22;101535.63;5073233;28;20065;-84
2022/05/10 09:37:26;;;;;;;;;;;;;;;21.38;48.09;101530.13;5055992;28;19946;-84
2022/05/10 09:39:57;;;;;;;;;;;;;;;21.38;48.09;101532.88;5043773;28;19918;-84
2022/05/10 09:42:27;;;;;;;;;;;;;;;21.38;48.09;101525.47;5067252;28;20019;-84
2022/05/10 09:44:57;;;;;;;;;;;;;;;21.39;48.40;101532.63;5050767;28;19959;-84
2022/05/10 09:47:22;;;;;;;;;;;;;;;21.39;48.36;101527.13;5062598;28;19920;-83
2022/05/10 09:49:47;;;;;;;;;;;;;;;21.41;48.46;101512.25;5055799;28;20417;-85
2022/05/10 09:52:22;;;;;;;;;;;;;;;21.41;48.13;101521.31;5072998;28;19966;-85
2022/05/10 09:54:50;;;;;;;;;;;;;;;21.42;48.07;101505.63;5053760;28;19980;-84
2022/05/10 09:57:28;;;;;;;;;;;;;;;21.43;48.41;101521.03;5063775;28;19927;-84
2022/05/10 09:59:53;;;;;;;;;;;;;;;21.43;48.35;101513.59;5062717;28;19984;-83
2022/05/10 10:02:26;;;;;;;;;;;;;;;21.44;48.01;101515.22;5076331;28;20027;-84
2022/05/10 10:04:51;;;;;;;;;;;;;;;21.43;48.46;101505.34;5056717;28;20051;-84
2022/05/10 10:07:17;;;;;;;;;;;;;;;21.44;48.48;101498.72;5072622;28;19951;-84
2022/05/10 10:09:46;;;;;;;;;;;;;;;21.44;48.09;101501.47;5072787;28;19947;-85
2022/05/10 10:12:16;;;;;;;;;;;;;;;21.45;48.07;101516.03;5073200;28;19983;-84
2022/05/10 10:14:42;;;;;;;;;;;;;;;21.46;48.14;101512.16;5072613;28;20053;-83
2022/05/10 10:17:22;;;;;;;;;;;;;;;21.47;48.41;101516.53;5066728;28;20366;-83
2022/05/10 10:20:07;;;;;;;;;;;;;;;21.47;48.47;101517.38;5050607;28;19920;-84
2022/05/10 10:22:38;;;;;;;;;;;;;;;21.47;48.37;101514.63;5048109;28;19920;-83
2022/05/10 10:25:08;;;;;;;;;;;;;;;21.48;48.39;101512.69;5060704;28;19947;-84
2022/05/10 10:27:38;;;;;;;;;;;;;;;21.50;48.51;101514.03;5052122;28;19916;-84
2022/05/10 10:30:09;;;;;;;;;;;;;;;21.51;48.56;101515.66;5068020;28;20387;-83
2022/05/10 10:32:38;;;;;;;;;;;;;;;21.50;48.16;101510.47;5054802;28;19923;-83
2022/05/10 10:35:03;;;;;;;;;;;;;;;21.52;48.27;101516.47;5059992;28;19924;-85
2022/05/10 10:37:32;;;;;;;;;;;;;;;21.52;48.43;101506.31;5068673;28;19917;-84
2022/05/10 10:40:03;;;;;;;;;;;;;;;21.52;48.46;101511.81;5070808;28;19920;-84
2022/05/10 10:42:41;;;;;;;;;;;;;;;21.54;48.47;101506.00;5060522;28;19985;-84
2022/05/10 10:45:12;;;;;;;;;;;;;;;21.54;48.08;101506.81;5045755;28;19946;-84
2022/05/10 10:47:40;;;;;;;;;;;;;;;21.55;48.06;101496.66;5062839;28;19917;-84
2022/05/10 10:50:11;;;;;;;;;;;;;;;21.55;48.25;101491.16;5054721;28;20356;-84
2022/05/10 10:52:37;;;;;;;;;;;;;;;21.56;48.21;101490.84;5057293;28;19938;-85
2022/05/10 10:55:04;;;;;;;;;;;;;;;21.56;48.12;101484.53;5068737;28;19992;-84
2022/05/10 10:57:48;;;;;;;;;;;;;;;21.58;48.06;101482.31;5087285;28;19942;-85
2022/05/10 11:00:13;;;;;;;;;;;;;;;21.58;48.05;101485.06;5068015;28;19953;-84
2022/05/10 11:02:39;;;;;;;;;;;;;;;21.58;48.27;101479.56;5052520;28;20434;-84
2022/05/10 11:05:05;;;;;;;;;;;;;;;21.59;48.36;101481.97;5052906;28;19943;-84
2022/05/10 11:07:30;;;;;;;;;;;;;;;21.59;48.25;101481.97;5067309;28;19946;-84
2022/05/10 11:09:59;;;;;;;;;;;;;;;21.61;48.26;101462.44;5067011;28;19920;-86
2022/05/10 11:12:43;;;;;;;;;;;;;;;21.61;48.26;101473.44;5035036;28;20038;-85
2022/05/10 11:15:17;;;;;;;;;;;;;;;21.61;48.25;101467.94;5043159;28;20349;-83
2022/05/10 11:17:49;;;;;;;;;;;;;;;21.61;48.16;101460.50;5052798;28;19927;-83
2022/05/10 11:20:20;;;;;;;;;;;;;;;21.63;48.18;101448.41;5068924;28;19967;-94
2022/05/10 11:23:06;;;;;;;;;;;;;;;21.63;48.31;101460.22;5043788;28;20375;-86
2022/05/10 11:25:51;;;;;;;;;;;;;;;21.64;48.05;101455.53;5045274;28;20383;-85
2022/05/10 11:28:19;;;;;;;;;;;;;;;21.65;48.28;101459.94;5070508;28;19929;-87
2022/05/10 11:31:04;;;;;;;;;;;;;;;21.65;48.34;101457.19;5052269;28;20015;-86
2022/05/10 11:33:49;;;;;;;;;;;;;;;21.66;47.92;101451.38;5084687;28;20291;-86
2022/05/10 11:36:32;;;;;;;;;;;;;;;21.67;48.29;101458.53;5053395;28;19973;-86
2022/05/10 11:38:58;;;;;;;;;;;;;;;21.67;48.25;101453.03;5049537;28;20094;-87
2022/05/10 11:41:39;;;;;;;;;;;;;;;21.67;48.19;101444.78;5055833;28;20710;-87
2022/05/10 11:44:04;;;;;;;;;;;;;;;21.68;48.33;101451.09;5051297;28;19982;-87
2022/05/10 11:46:35;;;;;;;;;;;;;;;21.69;47.91;101449.94;5050004;28;19956;-86
2022/05/10 11:49:14;;;;;;;;;;;;;;;21.69;48.20;101450.75;5062842;28;19917;-87
2022/05/10 11:51:52;;;;;;;;;;;;;;;21.69;47.98;101439.75;5033827;28;19921;-87
2022/05/10 11:54:23;;;;;;;;;;;;;;;21.71;48.23;101444.97;5052650;28;19917;-86
2022/05/10 11:56:50;;;;;;;;;;;;;;;21.71;48.03;101433.97;5050627;28;19962;-86
2022/05/10 11:59:23;;;;;;;;;;;;;;;21.72;47.86;101427.34;5052726;28;20381;-86
2022/05/10 12:01:53;;;;;;;;;;;;;;;21.73;47.88;101442.75;5064818;28;19931;-86
2022/05/10 12:04:36;;;;;;;;;;;;;;;21.72;47.96;101441.94;5083363;28;19943;-86
2022/05/10 12:07:24;;;;;;;;;;;;;;;21.73;48.23;101442.75;5051976;28;19939;-85
2022/05/10 12:09:52;;;;;;;;;;;;;;;21.74;47.88;101433.38;5051200;28;19942;-82
2022/05/10 12:12:33;;;;;;;;;;;;;;;21.73;47.92;101431.75;5064340;28;20004;-80
2022/05/10 12:21:19;;;;;;;;;;;;;;;21.76;48.08;101436.63;5060975;28;20064;-85
2022/05/10 12:24:00;;;;;;;;;;;;;;;21.76;48.06;101431.13;5067084;28;19920;-85
2022/05/10 12:26:43;;;;;;;;;;;;;;;21.76;48.02;101417.38;5055667;28;19931;-83
2022/05/10 12:29:27;;;;;;;;;;;;;;;21.77;48.03;101405.25;5058530;28;20029;-84
2022/05/10 12:31:54;;;;;;;;;;;;;;;21.77;47.99;101413.50;5076014;28;19916;-84
2022/05/10 12:34:38;;;;;;;;;;;;;;;21.77;47.97;101405.25;5075029;28;19935;-85
2022/05/10 12:37:24;;;;;;;;;;;;;;;21.78;48.03;101404.16;5088578;28;19981;-86
2022/05/10 12:40:08;;;;;;;;;;;;;;;21.77;47.87;101392.34;5050196;28;19928;-85
2022/05/10 12:42:38;;;;;;;;;;;;;;;21.79;47.92;101392.03;5057488;28;20379;-84
2022/05/10 12:45:07;;;;;;;;;;;;;;;21.79;47.91;101405.78;5069760;28;19955;-83
2022/05/10 12:47:51;;;;;;;;;;;;;;;21.80;48.07;101407.44;5072286;28;20378;-85
2022/05/10 12:50:35;;;;;;;;;;;;;;;21.79;48.09;101397.53;5067899;28;19917;-85
2022/05/10 12:53:01;;;;;;;;;;;;;;;21.80;47.99;101390.94;5088552;28;20419;-85
2022/05/10 12:55:28;;;;;;;;;;;;;;;21.81;47.83;101392.56;5067075;28;20019;-85
2022/05/10 12:58:00;;;;;;;;;;;;;;;21.81;48.11;101403.53;5068080;28;19993;-85